sensor_id;sensor_type;location;lat;lon;timestamp;pressure;altitude;pressure_sealevel;temperature;humidity
48089;BME280;33867;50.314;7.802;2024-03-06T00:01:59;100479.63;;;6.13;nan
48089;BME280;33867;50.314;7.802;2024-03-06T00:05:19;100486.53;;;6.04;nan
48089;BME280;33867;50.314;7.802;2024-03-06T00:08:38;100501.22;;;6.23;nan
48089;BME280;33867;50.314;7.802;2024-03-06T00:11:57;100497.53;;;6.00;nan
48089;BME280;33867;50.314;7.802;2024-03-06T00:15:16;100505.28;;;6.15;nan
48089;BME280;33867;50.314;7.802;2024-03-06T00:18:35;100508.69;;;5.94;nan
48089;BME280;33867;50.314;7.802;2024-03-06T00:21:54;100510.66;;;6.03;nan
48089;BME280;33867;50.314;7.802;2024-03-06T00:25:13;100523.09;;;5.91;nan
48089;BME280;33867;50.314;7.802;2024-03-06T00:28:33;100521.06;;;5.82;nan
48089;BME280;33867;50.314;7.802;2024-03-06T00:31:52;100522.91;;;5.94;nan
48089;BME280;33867;50.314;7.802;2024-03-06T00:35:11;100536.25;;;5.94;nan
48089;BME280;33867;50.314;7.802;2024-03-06T00:38:31;100540.16;;;6.14;nan
48089;BME280;33867;50.314;7.802;2024-03-06T00:41:50;100548.47;;;6.22;nan
48089;BME280;33867;50.314;7.802;2024-03-06T00:45:09;100541.44;;;6.21;nan
48089;BME280;33867;50.314;7.802;2024-03-06T00:48:28;100545.13;;;5.82;nan
48089;BME280;33867;50.314;7.802;2024-03-06T00:51:47;100550.88;;;6.01;nan
48089;BME280;33867;50.314;7.802;2024-03-06T00:55:07;100553.03;;;5.83;nan
48089;BME280;33867;50.314;7.802;2024-03-06T00:58:26;100546.59;;;5.86;nan
48089;BME280;33867;50.314;7.802;2024-03-06T01:01:45;100554.09;;;5.81;nan
48089;BME280;33867;50.314;7.802;2024-03-06T01:05:04;100544.78;;;5.99;nan
48089;BME280;33867;50.314;7.802;2024-03-06T01:08:23;100555.34;;;6.13;nan
48089;BME280;33867;50.314;7.802;2024-03-06T01:11:43;100563.66;;;6.22;nan
48089;BME280;33867;50.314;7.802;2024-03-06T01:15:06;100544.44;;;6.17;nan
48089;BME280;33867;50.314;7.802;2024-03-06T01:18:26;100554.06;;;6.19;nan
48089;BME280;33867;50.314;7.802;2024-03-06T01:21:45;100557.41;;;5.97;nan
48089;BME280;33867;50.314;7.802;2024-03-06T01:25:04;100552.06;;;5.97;nan
48089;BME280;33867;50.314;7.802;2024-03-06T01:28:24;100567.34;;;5.70;nan
48089;BME280;33867;50.314;7.802;2024-03-06T01:31:43;100563.59;;;5.72;nan
48089;BME280;33867;50.314;7.802;2024-03-06T01:35:05;100565.44;;;5.97;nan
48089;BME280;33867;50.314;7.802;2024-03-06T01:38:25;100563.69;;;6.09;nan
48089;BME280;33867;50.314;7.802;2024-03-06T01:41:45;100578.03;;;6.08;nan
48089;BME280;33867;50.314;7.802;2024-03-06T01:45:05;100567.38;;;5.95;nan
48089;BME280;33867;50.314;7.802;2024-03-06T01:48:27;100565.19;;;5.87;nan
48089;BME280;33867;50.314;7.802;2024-03-06T01:51:52;100563.72;;;5.83;nan
48089;BME280;33867;50.314;7.802;2024-03-06T01:55:12;100576.63;;;6.02;nan
48089;BME280;33867;50.314;7.802;2024-03-06T01:58:32;100559.72;;;6.14;nan
48089;BME280;33867;50.314;7.802;2024-03-06T02:01:53;100567.31;;;6.21;nan
48089;BME280;33867;50.314;7.802;2024-03-06T02:05:12;100576.41;;;6.18;nan
48089;BME280;33867;50.314;7.802;2024-03-06T02:08:31;100566.66;;;6.30;nan
48089;BME280;33867;50.314;7.802;2024-03-06T02:11:51;100577.91;;;6.22;nan
48089;BME280;33867;50.314;7.802;2024-03-06T02:15:10;100577.78;;;6.24;nan
48089;BME280;33867;50.314;7.802;2024-03-06T02:18:31;100584.09;;;6.23;nan
48089;BME280;33867;50.314;7.802;2024-03-06T02:21:50;100578.19;;;6.30;nan
48089;BME280;33867;50.314;7.802;2024-03-06T02:25:11;100584.09;;;6.23;nan
48089;BME280;33867;50.314;7.802;2024-03-06T02:28:30;100578.09;;;6.32;nan
48089;BME280;33867;50.314;7.802;2024-03-06T02:31:49;100577.53;;;6.27;nan
48089;BME280;33867;50.314;7.802;2024-03-06T02:35:08;100579.94;;;6.19;nan
48089;BME280;33867;50.314;7.802;2024-03-06T02:38:28;100598.34;;;6.10;nan
48089;BME280;33867;50.314;7.802;2024-03-06T02:41:47;100605.38;;;6.11;nan
48089;BME280;33867;50.314;7.802;2024-03-06T02:45:07;100608.06;;;6.11;nan
48089;BME280;33867;50.314;7.802;2024-03-06T02:48:26;100608.38;;;6.20;nan
48089;BME280;33867;50.314;7.802;2024-03-06T02:51:46;100605.72;;;6.20;nan
48089;BME280;33867;50.314;7.802;2024-03-06T02:55:05;100610.19;;;6.19;nan
48089;BME280;33867;50.314;7.802;2024-03-06T02:58:24;100613.97;;;6.17;nan
48089;BME280;33867;50.314;7.802;2024-03-06T03:01:43;100619.19;;;6.18;nan
48089;BME280;33867;50.314;7.802;2024-03-06T03:05:03;100611.81;;;6.09;nan
48089;BME280;33867;50.314;7.802;2024-03-06T03:08:22;100601.97;;;6.09;nan
48089;BME280;33867;50.314;7.802;2024-03-06T03:11:42;100605.84;;;6.05;nan
48089;BME280;33867;50.314;7.802;2024-03-06T03:15:02;100598.69;;;5.93;nan
48089;BME280;33867;50.314;7.802;2024-03-06T03:18:21;100599.44;;;5.95;nan
48089;BME280;33867;50.314;7.802;2024-03-06T03:21:44;100604.03;;;5.93;nan
48089;BME280;33867;50.314;7.802;2024-03-06T03:25:06;100597.47;;;5.59;nan
48089;BME280;33867;50.314;7.802;2024-03-06T03:28:26;100601.97;;;5.46;nan
48089;BME280;33867;50.314;7.802;2024-03-06T03:31:46;100604.19;;;5.65;nan
48089;BME280;33867;50.314;7.802;2024-03-06T03:35:06;100605.38;;;5.73;nan
48089;BME280;33867;50.314;7.802;2024-03-06T03:38:25;100612.97;;;5.67;nan
48089;BME280;33867;50.314;7.802;2024-03-06T03:41:45;100615.31;;;5.58;nan
48089;BME280;33867;50.314;7.802;2024-03-06T03:45:04;100617.78;;;5.62;nan
48089;BME280;33867;50.314;7.802;2024-03-06T03:48:24;100621.19;;;5.76;nan
48089;BME280;33867;50.314;7.802;2024-03-06T03:51:43;100616.19;;;5.72;nan
48089;BME280;33867;50.314;7.802;2024-03-06T03:55:02;100619.59;;;5.74;nan
48089;BME280;33867;50.314;7.802;2024-03-06T03:58:22;100627.72;;;5.60;nan
48089;BME280;33867;50.314;7.802;2024-03-06T04:01:41;100626.31;;;5.67;nan
48089;BME280;33867;50.314;7.802;2024-03-06T04:05:00;100627.72;;;5.72;nan
48089;BME280;33867;50.314;7.802;2024-03-06T04:08:19;100636.25;;;5.65;nan
48089;BME280;33867;50.314;7.802;2024-03-06T04:11:38;100630.59;;;5.56;nan
48089;BME280;33867;50.314;7.802;2024-03-06T04:14:57;100642.56;;;5.64;nan
48089;BME280;33867;50.314;7.802;2024-03-06T04:18:17;100643.00;;;5.70;nan
48089;BME280;33867;50.314;7.802;2024-03-06T04:21:41;100644.50;;;5.62;nan
48089;BME280;33867;50.314;7.802;2024-03-06T04:25:01;100651.31;;;5.66;nan
48089;BME280;33867;50.314;7.802;2024-03-06T04:28:22;100652.28;;;5.65;nan
48089;BME280;33867;50.314;7.802;2024-03-06T04:31:41;100650.78;;;5.61;nan
48089;BME280;33867;50.314;7.802;2024-03-06T04:35:01;100651.75;;;5.60;nan
48089;BME280;33867;50.314;7.802;2024-03-06T04:38:20;100654.09;;;5.51;nan
48089;BME280;33867;50.314;7.802;2024-03-06T04:41:39;100663.44;;;5.44;nan
48089;BME280;33867;50.314;7.802;2024-03-06T04:44:58;100661.00;;;5.41;nan
48089;BME280;33867;50.314;7.802;2024-03-06T04:48:18;100665.38;;;5.42;nan
48089;BME280;33867;50.314;7.802;2024-03-06T04:51:37;100671.78;;;5.40;nan
48089;BME280;33867;50.314;7.802;2024-03-06T04:54:56;100675.75;;;5.34;nan
48089;BME280;33867;50.314;7.802;2024-03-06T04:58:16;100673.06;;;5.34;nan
48089;BME280;33867;50.314;7.802;2024-03-06T05:01:34;100686.28;;;5.23;nan
48089;BME280;33867;50.314;7.802;2024-03-06T05:04:54;100690.34;;;5.28;nan
48089;BME280;33867;50.314;7.802;2024-03-06T05:08:13;100694.06;;;5.26;nan
48089;BME280;33867;50.314;7.802;2024-03-06T05:11:32;100692.47;;;5.23;nan
48089;BME280;33867;50.314;7.802;2024-03-06T05:14:52;100702.09;;;5.26;nan
48089;BME280;33867;50.314;7.802;2024-03-06T05:18:11;100700.38;;;5.25;nan
48089;BME280;33867;50.314;7.802;2024-03-06T05:21:30;100707.75;;;5.21;nan
48089;BME280;33867;50.314;7.802;2024-03-06T05:24:49;100711.81;;;5.00;nan
48089;BME280;33867;50.314;7.802;2024-03-06T05:28:08;100714.16;;;5.05;nan
48089;BME280;33867;50.314;7.802;2024-03-06T05:31:27;100723.38;;;5.13;nan
48089;BME280;33867;50.314;7.802;2024-03-06T05:34:47;100730.53;;;5.13;nan
48089;BME280;33867;50.314;7.802;2024-03-06T05:38:06;100736.72;;;5.13;nan
48089;BME280;33867;50.314;7.802;2024-03-06T05:41:25;100743.41;;;5.06;nan
48089;BME280;33867;50.314;7.802;2024-03-06T05:44:44;100740.47;;;4.96;nan
48089;BME280;33867;50.314;7.802;2024-03-06T05:48:04;100741.63;;;4.92;nan
48089;BME280;33867;50.314;7.802;2024-03-06T05:51:23;100750.22;;;4.97;nan
48089;BME280;33867;50.314;7.802;2024-03-06T05:54:42;100753.34;;;5.04;nan
48089;BME280;33867;50.314;7.802;2024-03-06T05:58:01;100752.59;;;5.02;nan
48089;BME280;33867;50.314;7.802;2024-03-06T06:01:21;100754.78;;;5.10;nan
48089;BME280;33867;50.314;7.802;2024-03-06T06:04:40;100766.09;;;5.13;nan
48089;BME280;33867;50.314;7.802;2024-03-06T06:07:59;100761.91;;;5.09;nan
48089;BME280;33867;50.314;7.802;2024-03-06T06:11:18;100770.16;;;5.19;nan
48089;BME280;33867;50.314;7.802;2024-03-06T06:14:38;100774.06;;;5.27;nan
48089;BME280;33867;50.314;7.802;2024-03-06T06:17:57;100776.78;;;5.40;nan
48089;BME280;33867;50.314;7.802;2024-03-06T06:21:17;100777.84;;;5.38;nan
48089;BME280;33867;50.314;7.802;2024-03-06T06:24:37;100780.22;;;5.42;nan
48089;BME280;33867;50.314;7.802;2024-03-06T06:27:57;100786.31;;;5.44;nan
48089;BME280;33867;50.314;7.802;2024-03-06T06:31:16;100792.41;;;5.46;nan
48089;BME280;33867;50.314;7.802;2024-03-06T06:34:35;100788.91;;;5.46;nan
48089;BME280;33867;50.314;7.802;2024-03-06T06:37:54;100802.94;;;5.35;nan
48089;BME280;33867;50.314;7.802;2024-03-06T06:41:14;100799.06;;;5.53;nan
48089;BME280;33867;50.314;7.802;2024-03-06T06:44:33;100809.63;;;5.55;nan
48089;BME280;33867;50.314;7.802;2024-03-06T06:47:52;100810.31;;;5.58;nan
48089;BME280;33867;50.314;7.802;2024-03-06T06:51:12;100817.63;;;5.69;nan
48089;BME280;33867;50.314;7.802;2024-03-06T06:54:31;100821.47;;;5.78;nan
48089;BME280;33867;50.314;7.802;2024-03-06T06:57:50;100821.59;;;5.76;nan
48089;BME280;33867;50.314;7.802;2024-03-06T07:01:10;100822.91;;;5.83;nan
48089;BME280;33867;50.314;7.802;2024-03-06T07:04:29;100828.97;;;5.73;nan
48089;BME280;33867;50.314;7.802;2024-03-06T07:07:48;100831.41;;;5.76;nan
48089;BME280;33867;50.314;7.802;2024-03-06T07:11:07;100833.97;;;5.77;nan
48089;BME280;33867;50.314;7.802;2024-03-06T07:14:26;100832.63;;;5.84;nan
48089;BME280;33867;50.314;7.802;2024-03-06T07:17:45;100839.75;;;5.98;nan
48089;BME280;33867;50.314;7.802;2024-03-06T07:21:04;100837.09;;;5.98;nan
48089;BME280;33867;50.314;7.802;2024-03-06T07:24:23;100838.59;;;6.02;nan
48089;BME280;33867;50.314;7.802;2024-03-06T07:27:42;100848.16;;;6.19;nan
48089;BME280;33867;50.314;7.802;2024-03-06T07:31:01;100838.09;;;6.23;nan
48089;BME280;33867;50.314;7.802;2024-03-06T07:34:21;100850.28;;;6.27;nan
48089;BME280;33867;50.314;7.802;2024-03-06T07:37:40;100847.97;;;6.35;nan
48089;BME280;33867;50.314;7.802;2024-03-06T07:41:00;100861.59;;;6.05;nan
48089;BME280;33867;50.314;7.802;2024-03-06T07:44:19;100854.81;;;6.39;nan
48089;BME280;33867;50.314;7.802;2024-03-06T07:47:39;100862.97;;;6.50;nan
48089;BME280;33867;50.314;7.802;2024-03-06T07:50:58;100867.81;;;6.70;nan
48089;BME280;33867;50.314;7.802;2024-03-06T07:54:17;100870.06;;;6.77;nan
48089;BME280;33867;50.314;7.802;2024-03-06T07:57:36;100874.97;;;6.83;nan
48089;BME280;33867;50.314;7.802;2024-03-06T08:00:55;100883.56;;;6.88;nan
48089;BME280;33867;50.314;7.802;2024-03-06T08:04:14;100881.50;;;7.04;nan
48089;BME280;33867;50.314;7.802;2024-03-06T08:07:33;100886.09;;;7.15;nan
48089;BME280;33867;50.314;7.802;2024-03-06T08:10:53;100872.84;;;7.13;nan
48089;BME280;33867;50.314;7.802;2024-03-06T08:14:12;100879.16;;;6.99;nan
48089;BME280;33867;50.314;7.802;2024-03-06T08:17:33;100890.97;;;6.32;nan
48089;BME280;33867;50.314;7.802;2024-03-06T08:20:52;100884.28;;;6.52;nan
48089;BME280;33867;50.314;7.802;2024-03-06T08:24:12;100894.03;;;7.03;nan
48089;BME280;33867;50.314;7.802;2024-03-06T08:27:30;100885.03;;;7.17;nan
48089;BME280;33867;50.314;7.802;2024-03-06T08:30:50;100902.59;;;6.18;nan
48089;BME280;33867;50.314;7.802;2024-03-06T08:34:11;100898.75;;;7.00;nan
48089;BME280;33867;50.314;7.802;2024-03-06T08:37:30;100895.56;;;7.57;nan
48089;BME280;33867;50.314;7.802;2024-03-06T08:40:49;100897.78;;;8.00;nan
48089;BME280;33867;50.314;7.802;2024-03-06T08:44:08;100901.66;;;8.19;nan
48089;BME280;33867;50.314;7.802;2024-03-06T08:47:27;100904.41;;;7.21;nan
48089;BME280;33867;50.314;7.802;2024-03-06T08:50:46;100912.94;;;7.88;nan
48089;BME280;33867;50.314;7.802;2024-03-06T08:54:05;100906.22;;;7.82;nan
48089;BME280;33867;50.314;7.802;2024-03-06T08:57:24;100912.03;;;8.48;nan
48089;BME280;33867;50.314;7.802;2024-03-06T09:00:47;100908.59;;;8.81;nan
48089;BME280;33867;50.314;7.802;2024-03-06T09:04:07;100916.72;;;8.57;nan
48089;BME280;33867;50.314;7.802;2024-03-06T09:07:26;100913.41;;;8.30;nan
48089;BME280;33867;50.314;7.802;2024-03-06T09:10:45;100919.75;;;9.10;nan
48089;BME280;33867;50.314;7.802;2024-03-06T09:14:04;100921.22;;;9.03;nan
48089;BME280;33867;50.314;7.802;2024-03-06T09:17:23;100916.09;;;9.11;nan
48089;BME280;33867;50.314;7.802;2024-03-06T09:20:42;100935.66;;;9.58;nan
48089;BME280;33867;50.314;7.802;2024-03-06T09:24:01;100923.31;;;9.22;nan
48089;BME280;33867;50.314;7.802;2024-03-06T09:27:20;100930.25;;;9.58;nan
48089;BME280;33867;50.314;7.802;2024-03-06T09:30:39;100918.63;;;9.80;nan
48089;BME280;33867;50.314;7.802;2024-03-06T09:34:00;100925.28;;;9.53;nan
48089;BME280;33867;50.314;7.802;2024-03-06T09:37:20;100921.78;;;10.07;nan
48089;BME280;33867;50.314;7.802;2024-03-06T09:40:39;100924.38;;;10.62;nan
48089;BME280;33867;50.314;7.802;2024-03-06T09:43:59;100920.88;;;11.12;nan
48089;BME280;33867;50.314;7.802;2024-03-06T09:47:21;100929.50;;;10.44;nan
48089;BME280;33867;50.314;7.802;2024-03-06T09:50:46;100932.75;;;10.04;nan
48089;BME280;33867;50.314;7.802;2024-03-06T09:54:07;100928.88;;;8.50;nan
48089;BME280;33867;50.314;7.802;2024-03-06T09:57:26;100930.88;;;9.05;nan
48089;BME280;33867;50.314;7.802;2024-03-06T10:00:47;100933.47;;;9.29;nan
48089;BME280;33867;50.314;7.802;2024-03-06T10:07:38;100931.78;;;10.05;nan
48089;BME280;33867;50.314;7.802;2024-03-06T10:10:57;100929.88;;;9.06;nan
48089;BME280;33867;50.314;7.802;2024-03-06T10:14:16;100920.84;;;10.29;nan
48089;BME280;33867;50.314;7.802;2024-03-06T10:17:35;100927.22;;;10.60;nan
48089;BME280;33867;50.314;7.802;2024-03-06T10:20:55;100926.94;;;11.26;nan
48089;BME280;33867;50.314;7.802;2024-03-06T10:24:27;100924.13;;;11.06;nan
48089;BME280;33867;50.314;7.802;2024-03-06T10:28:03;100933.78;;;10.88;nan
48089;BME280;33867;50.314;7.802;2024-03-06T10:31:28;100930.56;;;10.73;nan
48089;BME280;33867;50.314;7.802;2024-03-06T10:34:47;100930.13;;;11.40;nan
48089;BME280;33867;50.314;7.802;2024-03-06T10:38:07;100931.44;;;11.46;nan
48089;BME280;33867;50.314;7.802;2024-03-06T10:41:30;100931.97;;;12.30;nan
48089;BME280;33867;50.314;7.802;2024-03-06T10:44:52;100929.69;;;12.74;nan
48089;BME280;33867;50.314;7.802;2024-03-06T10:48:15;100931.06;;;13.63;nan
48089;BME280;33867;50.314;7.802;2024-03-06T10:51:35;100932.44;;;13.77;nan
48089;BME280;33867;50.314;7.802;2024-03-06T10:54:55;100926.69;;;14.08;nan
48089;BME280;33867;50.314;7.802;2024-03-06T10:58:18;100924.25;;;14.85;nan
48089;BME280;33867;50.314;7.802;2024-03-06T11:01:39;100913.84;;;14.99;nan
48089;BME280;33867;50.314;7.802;2024-03-06T11:04:58;100926.94;;;15.97;nan
48089;BME280;33867;50.314;7.802;2024-03-06T11:08:18;100917.13;;;15.62;nan
48089;BME280;33867;50.314;7.802;2024-03-06T11:11:47;100918.94;;;16.87;nan
48089;BME280;33867;50.314;7.802;2024-03-06T11:15:16;100921.28;;;17.86;nan
48089;BME280;33867;50.314;7.802;2024-03-06T11:21:54;100907.63;;;17.39;nan
48089;BME280;33867;50.314;7.802;2024-03-06T11:29:10;100905.66;;;15.76;nan
48089;BME280;33867;50.314;7.802;2024-03-06T11:32:29;100896.81;;;16.41;nan
48089;BME280;33867;50.314;7.802;2024-03-06T11:39:39;100904.50;;;15.27;nan
48089;BME280;33867;50.314;7.802;2024-03-06T11:43:25;100897.88;;;16.97;nan
48089;BME280;33867;50.314;7.802;2024-03-06T11:46:47;100893.09;;;17.63;nan
48089;BME280;33867;50.314;7.802;2024-03-06T11:50:09;100895.50;;;17.97;nan
48089;BME280;33867;50.314;7.802;2024-03-06T11:53:34;100888.13;;;18.36;nan
48089;BME280;33867;50.314;7.802;2024-03-06T11:56:56;100883.66;;;17.42;nan
48089;BME280;33867;50.314;7.802;2024-03-06T12:00:16;100878.53;;;18.86;nan
48089;BME280;33867;50.314;7.802;2024-03-06T12:03:35;100893.69;;;17.89;nan
48089;BME280;33867;50.314;7.802;2024-03-06T12:06:58;100886.28;;;17.03;nan
48089;BME280;33867;50.314;7.802;2024-03-06T12:10:26;100878.16;;;15.79;nan
48089;BME280;33867;50.314;7.802;2024-03-06T12:13:46;100876.63;;;15.09;nan
48089;BME280;33867;50.314;7.802;2024-03-06T12:17:11;100885.16;;;15.22;nan
48089;BME280;33867;50.314;7.802;2024-03-06T12:20:31;100887.19;;;16.71;nan
48089;BME280;33867;50.314;7.802;2024-03-06T12:23:50;100882.91;;;16.69;nan
48089;BME280;33867;50.314;7.802;2024-03-06T12:27:22;100887.34;;;16.78;nan
48089;BME280;33867;50.314;7.802;2024-03-06T12:30:42;100876.91;;;16.32;nan
48089;BME280;33867;50.314;7.802;2024-03-06T12:34:03;100878.63;;;17.07;nan
48089;BME280;33867;50.314;7.802;2024-03-06T12:37:29;100871.16;;;18.26;nan
48089;BME280;33867;50.314;7.802;2024-03-06T12:40:51;100877.44;;;16.36;nan
48089;BME280;33867;50.314;7.802;2024-03-06T12:44:10;100882.88;;;17.01;nan
48089;BME280;33867;50.314;7.802;2024-03-06T12:47:29;100881.41;;;17.54;nan
48089;BME280;33867;50.314;7.802;2024-03-06T12:50:48;100864.34;;;19.06;nan
48089;BME280;33867;50.314;7.802;2024-03-06T12:54:10;100869.63;;;18.47;nan
48089;BME280;33867;50.314;7.802;2024-03-06T12:57:29;100863.13;;;19.52;nan
48089;BME280;33867;50.314;7.802;2024-03-06T13:00:48;100867.88;;;18.77;nan
48089;BME280;33867;50.314;7.802;2024-03-06T13:04:08;100871.59;;;18.84;nan
48089;BME280;33867;50.314;7.802;2024-03-06T13:07:28;100876.28;;;18.21;nan
48089;BME280;33867;50.314;7.802;2024-03-06T13:10:48;100872.78;;;18.13;nan
48089;BME280;33867;50.314;7.802;2024-03-06T13:14:07;100863.88;;;19.17;nan
48089;BME280;33867;50.314;7.802;2024-03-06T13:17:30;100867.63;;;18.86;nan
48089;BME280;33867;50.314;7.802;2024-03-06T13:20:49;100868.06;;;18.52;nan
48089;BME280;33867;50.314;7.802;2024-03-06T13:24:08;100864.78;;;18.34;nan
48089;BME280;33867;50.314;7.802;2024-03-06T13:27:28;100855.28;;;18.76;nan
48089;BME280;33867;50.314;7.802;2024-03-06T13:30:47;100858.47;;;18.79;nan
48089;BME280;33867;50.314;7.802;2024-03-06T13:34:05;100862.97;;;19.10;nan
48089;BME280;33867;50.314;7.802;2024-03-06T13:37:25;100861.66;;;19.65;nan
48089;BME280;33867;50.314;7.802;2024-03-06T13:40:44;100866.44;;;20.35;nan
48089;BME280;33867;50.314;7.802;2024-03-06T13:44:03;100863.16;;;20.39;nan
48089;BME280;33867;50.314;7.802;2024-03-06T13:47:22;100870.78;;;19.72;nan
48089;BME280;33867;50.314;7.802;2024-03-06T13:50:45;100864.25;;;18.84;nan
48089;BME280;33867;50.314;7.802;2024-03-06T13:54:04;100874.50;;;18.36;nan
48089;BME280;33867;50.314;7.802;2024-03-06T13:57:23;100873.09;;;17.87;nan
48089;BME280;33867;50.314;7.802;2024-03-06T14:00:42;100876.97;;;17.53;nan
48089;BME280;33867;50.314;7.802;2024-03-06T14:04:03;100878.97;;;17.12;nan
48089;BME280;33867;50.314;7.802;2024-03-06T14:07:22;100870.34;;;16.84;nan
48089;BME280;33867;50.314;7.802;2024-03-06T14:10:41;100873.06;;;16.76;nan
48089;BME280;33867;50.314;7.802;2024-03-06T14:14:01;100877.78;;;16.49;nan
48089;BME280;33867;50.314;7.802;2024-03-06T14:17:20;100881.34;;;16.42;nan
48089;BME280;33867;50.314;7.802;2024-03-06T14:20:39;100886.81;;;16.58;nan
48089;BME280;33867;50.314;7.802;2024-03-06T14:23:59;100881.53;;;16.56;nan
48089;BME280;33867;50.314;7.802;2024-03-06T14:27:18;100888.69;;;16.98;nan
48089;BME280;33867;50.314;7.802;2024-03-06T14:30:38;100876.88;;;17.30;nan
48089;BME280;33867;50.314;7.802;2024-03-06T14:33:57;100877.47;;;17.57;nan
48089;BME280;33867;50.314;7.802;2024-03-06T14:37:16;100872.63;;;17.28;nan
48089;BME280;33867;50.314;7.802;2024-03-06T14:40:36;100868.66;;;16.83;nan
48089;BME280;33867;50.314;7.802;2024-03-06T14:43:55;100872.97;;;17.16;nan
48089;BME280;33867;50.314;7.802;2024-03-06T14:47:14;100870.63;;;17.61;nan
48089;BME280;33867;50.314;7.802;2024-03-06T14:50:33;100869.25;;;18.04;nan
48089;BME280;33867;50.314;7.802;2024-03-06T14:53:52;100874.22;;;18.46;nan
48089;BME280;33867;50.314;7.802;2024-03-06T14:57:12;100871.19;;;18.72;nan
48089;BME280;33867;50.314;7.802;2024-03-06T15:00:31;100873.50;;;18.06;nan
48089;BME280;33867;50.314;7.802;2024-03-06T15:03:52;100881.44;;;17.38;nan
48089;BME280;33867;50.314;7.802;2024-03-06T15:07:12;100882.75;;;16.78;nan
48089;BME280;33867;50.314;7.802;2024-03-06T15:10:31;100879.47;;;16.42;nan
48089;BME280;33867;50.314;7.802;2024-03-06T15:13:50;100885.00;;;15.92;nan
48089;BME280;33867;50.314;7.802;2024-03-06T15:17:09;100890.84;;;15.63;nan
48089;BME280;33867;50.314;7.802;2024-03-06T15:20:29;100881.78;;;15.20;nan
48089;BME280;33867;50.314;7.802;2024-03-06T15:23:49;100892.63;;;13.60;nan
48089;BME280;33867;50.314;7.802;2024-03-06T15:27:10;100901.22;;;13.45;nan
48089;BME280;33867;50.314;7.802;2024-03-06T15:30:30;100897.88;;;13.34;nan
48089;BME280;33867;50.314;7.802;2024-03-06T15:38:21;100895.66;;;13.47;nan
48089;BME280;33867;50.314;7.802;2024-03-06T15:41:41;100902.41;;;13.33;nan
48089;BME280;33867;50.314;7.802;2024-03-06T15:45:00;100902.00;;;13.38;nan
48089;BME280;33867;50.314;7.802;2024-03-06T15:48:19;100908.78;;;13.52;nan
48089;BME280;33867;50.314;7.802;2024-03-06T15:51:38;100907.16;;;13.12;nan
48089;BME280;33867;50.314;7.802;2024-03-06T15:54:57;100906.63;;;12.99;nan
48089;BME280;33867;50.314;7.802;2024-03-06T15:58:16;100918.28;;;12.99;nan
48089;BME280;33867;50.314;7.802;2024-03-06T16:01:36;100925.28;;;12.24;nan
48089;BME280;33867;50.314;7.802;2024-03-06T16:04:55;100928.84;;;11.75;nan
48089;BME280;33867;50.314;7.802;2024-03-06T16:08:14;100933.28;;;11.46;nan
48089;BME280;33867;50.314;7.802;2024-03-06T16:11:34;100926.25;;;11.03;nan
48089;BME280;33867;50.314;7.802;2024-03-06T16:14:53;100940.31;;;10.86;nan
48089;BME280;33867;50.314;7.802;2024-03-06T16:18:13;100939.03;;;11.62;nan
48089;BME280;33867;50.314;7.802;2024-03-06T16:21:32;100936.88;;;11.86;nan
48089;BME280;33867;50.314;7.802;2024-03-06T16:24:51;100936.06;;;12.15;nan
48089;BME280;33867;50.314;7.802;2024-03-06T16:28:10;100947.69;;;12.06;nan
48089;BME280;33867;50.314;7.802;2024-03-06T16:31:29;100943.53;;;11.52;nan
48089;BME280;33867;50.314;7.802;2024-03-06T16:34:49;100945.75;;;11.37;nan
48089;BME280;33867;50.314;7.802;2024-03-06T16:38:08;100945.97;;;11.95;nan
48089;BME280;33867;50.314;7.802;2024-03-06T16:41:28;100952.00;;;12.08;nan
48089;BME280;33867;50.314;7.802;2024-03-06T16:44:47;100959.50;;;12.14;nan
48089;BME280;33867;50.314;7.802;2024-03-06T16:48:07;100959.53;;;12.24;nan
48089;BME280;33867;50.314;7.802;2024-03-06T16:51:25;100958.50;;;12.06;nan
48089;BME280;33867;50.314;7.802;2024-03-06T16:54:47;100962.69;;;11.79;nan
48089;BME280;33867;50.314;7.802;2024-03-06T16:58:06;100959.50;;;11.13;nan
48089;BME280;33867;50.314;7.802;2024-03-06T17:01:25;100963.63;;;11.17;nan
48089;BME280;33867;50.314;7.802;2024-03-06T17:04:44;100968.88;;;10.56;nan
48089;BME280;33867;50.314;7.802;2024-03-06T17:08:04;100975.50;;;10.73;nan
48089;BME280;33867;50.314;7.802;2024-03-06T17:11:24;100977.91;;;11.08;nan
48089;BME280;33867;50.314;7.802;2024-03-06T17:14:43;100964.91;;;11.13;nan
48089;BME280;33867;50.314;7.802;2024-03-06T17:18:02;100975.34;;;11.06;nan
48089;BME280;33867;50.314;7.802;2024-03-06T17:21:21;100971.38;;;11.10;nan
48089;BME280;33867;50.314;7.802;2024-03-06T17:24:40;100984.06;;;10.99;nan
48089;BME280;33867;50.314;7.802;2024-03-06T17:27:59;100983.94;;;10.79;nan
48089;BME280;33867;50.314;7.802;2024-03-06T17:31:18;100983.00;;;10.69;nan
48089;BME280;33867;50.314;7.802;2024-03-06T17:34:37;100994.03;;;10.87;nan
48089;BME280;33867;50.314;7.802;2024-03-06T17:37:57;100994.94;;;10.76;nan
48089;BME280;33867;50.314;7.802;2024-03-06T17:41:15;100998.97;;;10.50;nan
48089;BME280;33867;50.314;7.802;2024-03-06T17:44:36;101001.06;;;10.46;nan
48089;BME280;33867;50.314;7.802;2024-03-06T17:47:57;101003.19;;;10.43;nan
48089;BME280;33867;50.314;7.802;2024-03-06T17:51:16;101009.09;;;10.25;nan
48089;BME280;33867;50.314;7.802;2024-03-06T17:54:35;101018.41;;;10.21;nan
48089;BME280;33867;50.314;7.802;2024-03-06T17:57:54;101022.25;;;10.40;nan
48089;BME280;33867;50.314;7.802;2024-03-06T18:01:13;101028.19;;;10.22;nan
48089;BME280;33867;50.314;7.802;2024-03-06T18:04:32;101028.63;;;10.16;nan
48089;BME280;33867;50.314;7.802;2024-03-06T18:07:52;101027.66;;;10.06;nan
48089;BME280;33867;50.314;7.802;2024-03-06T18:11:11;101037.34;;;10.31;nan
48089;BME280;33867;50.314;7.802;2024-03-06T18:14:30;101039.16;;;10.42;nan
48089;BME280;33867;50.314;7.802;2024-03-06T18:17:49;101040.38;;;10.38;nan
48089;BME280;33867;50.314;7.802;2024-03-06T18:21:08;101042.09;;;10.28;nan